Tropical Cyclones
[Index]
Main Index Home Page Stock Weather Photos Extreme Storms Discussion Storm News and Storm Chasing Reports Tropical Cyclones / Hurricanes / Typhoons Weather Data and Links Wild Fires / Bushfires Weather Observation Techniques Weather Picture Catalogue Tornado Pictures and Reports Stock Video Footage and DVDs for sale
Season 2010-2011 Tropical Cyclone BUNE Track Map
Season 2010-2011 Summaries (Operational Data): [AU] [SIO] [SPAC] [SH]
<<- Previous TC | 2010-2011 Season | Next TC ->>

click for intensity scale information  Lat/long Grid: Show Hide

 Date Labels: Show Hide

Operational Tropical Cyclone Data : JTWC Advisories

Name: BUNE
Number: 1119

22 Mar 2011 06:00 UTC to 05 Apr 2011 00:00 UTC

    date/time    lat    long     hPa   cat  kts
2011-03-22 06   17.2   174.9W   1005                     
2011-03-22 18   17.2   176.9W   1004                     
2011-03-23 00   17.9   177.2W   1003                     
2011-03-23 06   19.7   177.8W    999         25          
2011-03-23 12   20.0   177.8W    999         30          
2011-03-23 18   20.5   179.0W    999         30          
2011-03-24 00   21.1   179.5W    995         30          
2011-03-24 03   21.0   179.9     990    1    35          
2011-03-24 06   21.1   179.9W    990    1    40          
2011-03-24 12   21.3   179.9W    983    2    50          
2011-03-24 18   21.5   179.9W    982    2    50          
2011-03-25 00   21.8   179.4W    976    2    60          
2011-03-25 06   22.4   179.2W    970    3    65          
2011-03-25 12   22.5   179.6W    969    3    70          
2011-03-25 18   22.6   179.6W    967    3    70          
2011-03-26 00   22.9   179.8W    977    2    60          
2011-03-26 06   23.0   180.0     970    3    65          
2011-03-26 12   23.2   179.4     973    3    65          
2011-03-26 18   23.8   179.2     973    3    65          
2011-03-27 00   24.4   179.0     971    3    65          
2011-03-27 06   24.9   178.9     970    3    65          
2011-03-27 12   25.8   178.9     970    3    65          
2011-03-27 18   26.4   179.8     975    2    60          
2011-03-28 00   27.4   179.1W    975    2    60          
2011-03-28 06   28.4   177.9W    970    3    65          
2011-03-28 12   29.5   176.2W    967    3    70          
2011-03-28 18   31.8   174.2W    975    2    60          
2011-03-29 00   32.6   176.3W    989                     
2011-03-29 06   34.2   176.0W    989    1    40          
2011-03-29 12   35.1   176.5W    989    1    40          
2011-03-29 18   35.0   176.5W    995                     
2011-03-30 00   35.0   176.9W    998                     
2011-03-30 06   35.1   177.0W    999                     
2011-03-30 12   35.3   177.1W   1003                     
2011-03-30 18   37.5   176.1W   1004                     
2011-03-31 00   37.9   176.2W   1004                     
2011-03-31 06   39.6   175.4W   1003                     
2011-03-31 12   40.4   174.6W   1002                     
2011-03-31 18   42.6   172.2W   1000                     
2011-04-01 00   44.8   170.0W    999                     
2011-04-01 06   45.2   168.4W    997                     
2011-04-01 12   47.6   167.2W    997                     
2011-04-01 18   49.7   165.5W    997                     
2011-04-02 00   50.6   162.4W    996                     
2011-04-02 06   52.8   159.9W    995                     
2011-04-02 12   55.2   157.1W    997                     
2011-04-02 18   57.3   153.9W    998                     
2011-04-03 00   58.0   150.0W    999                     
2011-04-03 06   60.0   144.4W   1000                     
2011-04-03 12   60.1   140.4W    999                     
2011-04-03 18   60.1   134.7W    999                     
2011-04-04 00   60.1   130.0W    998                     
2011-04-04 06   59.8   125.9W    998                     
2011-04-04 12   58.8   122.3W    996                     
2011-04-04 18   57.8   119.1W    997                     
2011-04-05 00   57.5   112.2W    997                     
Winds are 10-min average.

Tropical cyclone tracks developed by Michael Bath using operational warnings and advisories and Google Maps.


[Australian Severe Weather index] [Copyright Notice] [Email Contacts] [Search This Site] [Privacy Policy]
Document: tropical_cyclone_bune.htm Updated: 2 May 2017